Terminal Aerodrome Forecast
Issued by NWS

Home | Current Version | Previous Version | Text Only | Print | Product List | Glossary Off
Versions: 1 2 3 4 5 6 7 8 9 10 11 12 13 14 15

000
FTUS43 KFGF 231700
TAFBJI
TAF
KBJI 231739Z 2318/2418 31006KT P6SM SKC
     FM232100 31003KT P6SM BKN200
     FM240300 09003KT P6SM BKN150=

USA.gov is the U.S. government's official web portal to all federal, state and local government web resources and services.